KEBG

South Texas International at Edinburg Airport

Edinburg, Texas, USA
METAR KEBG 150315Z AUTO 13010KT 10SM CLR 30/22 A2992 RMK AO2 T02950216
Observed Flight Rules
Aug-15 @ 03:15 UTC (21 minutes ago) Visual Flight Rules
Wind Visibility Clouds
130° at 10 knots 10 miles
  • Clear skies
Temperatures Readings
Current 30°C / 86°F
Dewpoint 22°C / 72°F
Humidity 62%
Altimeter 29.92" Hg
Pressure 1013 hPa
Elevation 24
METAR KEBG 150315Z AUTO 13010KT 10SM CLR 30/22 A2992 RMK AO2 T02950216
Observed Flight Rules
Aug-15 @ 03:15 UTC
(21 minutes ago)
VFR
Wind Visibility
130° at 10 knots 10 miles
Clouds
  • Clear skies
Temperature Dewpoint
30°C / 86°F 22°C / 72°F
Humidity Altimeter Pressure
62% 29.92" Hg 1013 hPa